^^
Station Historical Data
Daily Summary for July 25, 2017 Units:  Both    English   Metric
« Previous Day
Next Day »
Daily Weekly Monthly Yearly Custom
  High: Low: Average:
Temperature: 74.1 °F /  23.4 °C 41.7 °F /  5.4 °C 57.5 °F /  14.2 °C
Dew Point: 26.2 °F /  -3.2 °C 18.7 °F /  -7.4 °C 22.5 °F /  -5.3 °C
Humidity: 43% 15% 28%
Wind Speed: 8.1mph /  13km/h - 0.6mph /  1km/h
Wind Gust: 14.0mph /  22.5km/h - -
Wind- - SW
Pressure: 30.17 in /  1021.6 hPa 30.06 in /  1017.8 hPa -
Precipitation: 0.00 in /  0 mm    
Historical Graphs
 
 
Tabular Data for July 25, 2017
Time Temperature Dew Point Pressure Wind Wind Speed Wind Gust Humidity Rainfall Rate (Hourly) solar Conditions
00:05 48.7 °F /  9.3 °C 20.1 °F /  -6.6 °C 30.12in /  1019.9hPa Calm     32% 0.00in /  0mm 0.0 W/m2
00:11 48.7 °F /  9.3 °C 20.8 °F /  -6.2 °C 30.11in /  1019.5hPa Calm     33% 0.00in /  0mm 0.0 W/m2
00:17 48.6 °F /  9.2 °C 20.8 °F /  -6.2 °C 30.11in /  1019.5hPa Calm     33% 0.00in /  0mm 0.0 W/m2
00:23 48.0 °F /  8.9 °C 20.3 °F /  -6.5 °C 30.11in /  1019.5hPa Calm     33% 0.00in /  0mm 0.0 W/m2
00:29 47.8 °F /  8.8 °C 20.8 °F /  -6.2 °C 30.11in /  1019.5hPa Calm     34% 0.00in /  0mm 0.0 W/m2
00:35 47.8 °F /  8.8 °C 20.8 °F /  -6.2 °C 30.11in /  1019.5hPa Calm     34% 0.00in /  0mm 0.0 W/m2
00:41 47.7 °F /  8.7 °C 20.7 °F /  -6.3 °C 30.11in /  1019.5hPa Calm     34% 0.00in /  0mm 0.0 W/m2
00:48 47.7 °F /  8.7 °C 20.7 °F /  -6.3 °C 30.11in /  1019.5hPa Calm     34% 0.00in /  0mm 0.0 W/m2
00:54 47.5 °F /  8.6 °C 20.5 °F /  -6.4 °C 30.12in /  1019.9hPa Calm   3.0mph /  4.8km/h 34% 0.00in /  0mm 0.0 W/m2
01:00 47.8 °F /  8.8 °C 20.8 °F /  -6.2 °C 30.12in /  1019.9hPa East 2.0mph /  3.2km/h 6.0mph /  9.7km/h 34% 0.00in /  0mm 0.0 W/m2
01:06 48.0 °F /  8.9 °C 20.3 °F /  -6.5 °C 30.12in /  1019.9hPa Calm   2.0mph /  3.2km/h 33% 0.00in /  0mm 0.0 W/m2
01:12 48.2 °F /  9 °C 21.2 °F /  -6 °C 30.12in /  1019.9hPa Calm   2.0mph /  3.2km/h 34% 0.00in /  0mm 0.0 W/m2
01:18 48.0 °F /  8.9 °C 21.0 °F /  -6.1 °C 30.12in /  1019.9hPa Calm   1.0mph /  1.6km/h 34% 0.00in /  0mm 0.0 W/m2
01:25 47.8 °F /  8.8 °C 20.8 °F /  -6.2 °C 30.12in /  1019.9hPa Calm     34% 0.00in /  0mm 0.0 W/m2
01:31 47.7 °F /  8.7 °C 20.7 °F /  -6.3 °C 30.12in /  1019.9hPa Calm     34% 0.00in /  0mm 0.0 W/m2
01:37 47.5 °F /  8.6 °C 21.2 °F /  -6 °C 30.12in /  1019.9hPa Calm     35% 0.00in /  0mm 0.0 W/m2
01:43 47.1 °F /  8.4 °C 20.8 °F /  -6.2 °C 30.12in /  1019.9hPa Calm     35% 0.00in /  0mm 0.0 W/m2
01:49 46.9 °F /  8.3 °C 20.7 °F /  -6.3 °C 30.12in /  1019.9hPa Calm     35% 0.00in /  0mm 0.0 W/m2
01:55 46.6 °F /  8.1 °C 20.3 °F /  -6.5 °C 30.12in /  1019.9hPa Calm     35% 0.00in /  0mm 0.0 W/m2
02:01 46.2 °F /  7.9 °C 20.7 °F /  -6.3 °C 30.12in /  1019.9hPa Calm     36% 0.00in /  0mm 0.0 W/m2
02:08 45.9 °F /  7.7 °C 21.7 °F /  -5.7 °C 30.11in /  1019.5hPa Calm     38% 0.00in /  0mm 0.0 W/m2
02:14 45.7 °F /  7.6 °C 21.6 °F /  -5.8 °C 30.12in /  1019.9hPa Calm     38% 0.00in /  0mm 0.0 W/m2
02:20 45.1 °F /  7.3 °C 21.0 °F /  -6.1 °C 30.11in /  1019.5hPa Calm     38% 0.00in /  0mm 0.0 W/m2
02:26 45.0 °F /  7.2 °C 21.6 °F /  -5.8 °C 30.11in /  1019.5hPa Calm     39% 0.00in /  0mm 0.0 W/m2
02:32 44.4 °F /  6.9 °C 21.0 °F /  -6.1 °C 30.11in /  1019.5hPa Calm     39% 0.00in /  0mm 0.0 W/m2
02:38 44.2 °F /  6.8 °C 21.4 °F /  -5.9 °C 30.11in /  1019.5hPa Calm     40% 0.00in /  0mm 0.0 W/m2
02:44 43.9 °F /  6.6 °C 21.2 °F /  -6 °C 30.11in /  1019.5hPa Calm     40% 0.00in /  0mm 0.0 W/m2
02:51 43.5 °F /  6.4 °C 21.4 °F /  -5.9 °C 30.11in /  1019.5hPa Calm     41% 0.00in /  0mm 0.0 W/m2
02:57 43.3 °F /  6.3 °C 21.7 °F /  -5.7 °C 30.11in /  1019.5hPa Calm     42% 0.00in /  0mm 0.0 W/m2
03:03 43.2 °F /  6.2 °C 21.0 °F /  -6.1 °C 30.11in /  1019.5hPa Calm     41% 0.00in /  0mm 0.0 W/m2
03:09 43.0 °F /  6.1 °C 20.8 °F /  -6.2 °C 30.11in /  1019.5hPa Calm     41% 0.00in /  0mm 0.0 W/m2
03:15 42.8 °F /  6 °C 20.7 °F /  -6.3 °C 30.11in /  1019.5hPa Calm     41% 0.00in /  0mm 0.0 W/m2
03:21 42.6 °F /  5.9 °C 20.5 °F /  -6.4 °C 30.11in /  1019.5hPa Calm     41% 0.00in /  0mm 0.0 W/m2
03:27 42.4 °F /  5.8 °C 21.0 °F /  -6.1 °C 30.11in /  1019.5hPa Calm     42% 0.00in /  0mm 0.0 W/m2
03:40 42.3 °F /  5.7 °C 20.8 °F /  -6.2 °C 30.11in /  1019.5hPa Calm     42% 0.00in /  0mm 0.0 W/m2
03:46 41.9 °F /  5.5 °C 21.0 °F /  -6.1 °C 30.11in /  1019.5hPa Calm     43% 0.00in /  0mm 0.0 W/m2
03:52 41.7 °F /  5.4 °C 20.8 °F /  -6.2 °C 30.11in /  1019.5hPa Calm     43% 0.00in /  0mm 0.0 W/m2
03:58 41.7 °F /  5.4 °C 20.8 °F /  -6.2 °C 30.11in /  1019.5hPa Calm     43% 0.00in /  0mm 0.0 W/m2
04:04 41.9 °F /  5.5 °C 21.0 °F /  -6.1 °C 30.11in /  1019.5hPa Calm     43% 0.00in /  0mm 0.0 W/m2
04:11 42.3 °F /  5.7 °C 20.8 °F /  -6.2 °C 30.11in /  1019.5hPa Calm     42% 0.00in /  0mm 0.0 W/m2
04:17 42.4 °F /  5.8 °C 21.0 °F /  -6.1 °C 30.11in /  1019.5hPa Calm     42% 0.00in /  0mm 0.0 W/m2
04:23 42.8 °F /  6 °C 21.4 °F /  -5.9 °C 30.11in /  1019.5hPa Calm     42% 0.00in /  0mm 0.0 W/m2
04:29 43.2 °F /  6.2 °C 21.0 °F /  -6.1 °C 30.11in /  1019.5hPa Calm   1.0mph /  1.6km/h 41% 0.00in /  0mm 0.0 W/m2
04:35 43.3 °F /  6.3 °C 21.2 °F /  -6 °C 30.11in /  1019.5hPa Calm     41% 0.00in /  0mm 0.0 W/m2
04:41 43.3 °F /  6.3 °C 20.7 °F /  -6.3 °C 30.12in /  1019.9hPa Calm     40% 0.00in /  0mm 0.0 W/m2
04:47 43.5 °F /  6.4 °C 21.4 °F /  -5.9 °C 30.12in /  1019.9hPa Calm     41% 0.00in /  0mm 0.0 W/m2
04:56 43.5 °F /  6.4 °C 20.8 °F /  -6.2 °C 30.12in /  1019.9hPa Calm     40% 0.00in /  0mm 0.0 W/m2
05:02 43.5 °F /  6.4 °C 20.8 °F /  -6.2 °C 30.12in /  1019.9hPa Calm     40% 0.00in /  0mm 0.0 W/m2
05:08 43.5 °F /  6.4 °C 20.8 °F /  -6.2 °C 30.12in /  1019.9hPa Calm     40% 0.00in /  0mm 0.0 W/m2
05:14 43.7 °F /  6.5 °C 21.0 °F /  -6.1 °C 30.12in /  1019.9hPa Calm     40% 0.00in /  0mm 0.0 W/m2
05:20 43.7 °F /  6.5 °C 21.0 °F /  -6.1 °C 30.12in /  1019.9hPa Calm     40% 0.00in /  0mm 0.0 W/m2
05:26 43.7 °F /  6.5 °C 21.0 °F /  -6.1 °C 30.12in /  1019.9hPa Calm     40% 0.00in /  0mm 0.0 W/m2
05:32 43.7 °F /  6.5 °C 21.0 °F /  -6.1 °C 30.13in /  1020.2hPa Calm     40% 0.00in /  0mm 0.0 W/m2
05:39 43.5 °F /  6.4 °C 20.8 °F /  -6.2 °C 30.13in /  1020.2hPa Calm     40% 0.00in /  0mm 0.0 W/m2
05:45 43.5 °F /  6.4 °C 21.4 °F /  -5.9 °C 30.13in /  1020.2hPa Calm     41% 0.00in /  0mm 0.0 W/m2
05:51 43.3 °F /  6.3 °C 21.7 °F /  -5.7 °C 30.13in /  1020.2hPa Calm     42% 0.00in /  0mm 0.0 W/m2
05:57 43.0 °F /  6.1 °C 20.8 °F /  -6.2 °C 30.13in /  1020.2hPa Calm     41% 0.00in /  0mm 0.0 W/m2
06:03 42.6 °F /  5.9 °C 20.5 °F /  -6.4 °C 30.14in /  1020.5hPa Calm   1.0mph /  1.6km/h 41% 0.00in /  0mm 0.0 W/m2
06:09 42.6 °F /  5.9 °C 21.2 °F /  -6 °C 30.14in /  1020.5hPa Calm     42% 0.00in /  0mm 0.0 W/m2
06:15 42.6 °F /  5.9 °C 21.2 °F /  -6 °C 30.14in /  1020.5hPa Calm   1.0mph /  1.6km/h 42% 0.00in /  0mm 0.0 W/m2
06:22 42.6 °F /  5.9 °C 20.5 °F /  -6.4 °C 30.14in /  1020.5hPa Calm   4.0mph /  6.4km/h 41% 0.00in /  0mm 0.0 W/m2
06:28 43.0 °F /  6.1 °C 20.8 °F /  -6.2 °C 30.14in /  1020.5hPa Calm     41% 0.00in /  0mm 0.0 W/m2
06:34 43.0 °F /  6.1 °C 21.4 °F /  -5.9 °C 30.14in /  1020.5hPa Calm     42% 0.00in /  0mm 5.0 W/m2
06:40 42.6 °F /  5.9 °C 21.7 °F /  -5.7 °C 30.15in /  1020.9hPa Calm     43% 0.00in /  0mm 9.0 W/m2
06:46 42.3 °F /  5.7 °C 20.8 °F /  -6.2 °C 30.15in /  1020.9hPa Calm     42% 0.00in /  0mm 11.0 W/m2
06:52 42.4 °F /  5.8 °C 21.0 °F /  -6.1 °C 30.16in /  1021.2hPa Calm     42% 0.00in /  0mm 12.0 W/m2
06:58 42.6 °F /  5.9 °C 21.2 °F /  -6 °C 30.15in /  1020.9hPa Calm   1.0mph /  1.6km/h 42% 0.00in /  0mm 16.0 W/m2
07:04 42.6 °F /  5.9 °C 21.7 °F /  -5.7 °C 30.16in /  1021.2hPa Calm   1.0mph /  1.6km/h 43% 0.00in /  0mm 16.0 W/m2
07:11 43.0 °F /  6.1 °C 22.1 °F /  -5.5 °C 30.16in /  1021.2hPa Calm   1.0mph /  1.6km/h 43% 0.00in /  0mm 18.0 W/m2
07:17 43.3 °F /  6.3 °C 22.3 °F /  -5.4 °C 30.16in /  1021.2hPa Calm   3.0mph /  4.8km/h 43% 0.00in /  0mm 19.0 W/m2
07:23 43.5 °F /  6.4 °C 21.9 °F /  -5.6 °C 30.16in /  1021.2hPa Calm   1.0mph /  1.6km/h 42% 0.00in /  0mm 21.0 W/m2
07:29 44.1 °F /  6.7 °C 23.0 °F /  -5 °C 30.16in /  1021.2hPa Calm     43% 0.00in /  0mm 23.0 W/m2
07:35 44.8 °F /  7.1 °C 23.7 °F /  -4.6 °C 30.16in /  1021.2hPa Calm     43% 0.00in /  0mm 25.0 W/m2
07:41 45.3 °F /  7.4 °C 23.5 °F /  -4.7 °C 30.16in /  1021.2hPa Calm   1.0mph /  1.6km/h 42% 0.00in /  0mm 26.0 W/m2
07:47 46.0 °F /  7.8 °C 24.3 °F /  -4.3 °C 30.17in /  1021.6hPa Calm     42% 0.00in /  0mm 28.0 W/m2
07:54 46.6 °F /  8.1 °C 24.1 °F /  -4.4 °C 30.17in /  1021.6hPa Calm     41% 0.00in /  0mm 28.0 W/m2
08:00 47.1 °F /  8.4 °C 24.1 °F /  -4.4 °C 30.17in /  1021.6hPa Calm   1.0mph /  1.6km/h 40% 0.00in /  0mm 30.0 W/m2
08:06 47.8 °F /  8.8 °C 24.6 °F /  -4.1 °C 30.17in /  1021.6hPa Calm     40% 0.00in /  0mm 32.0 W/m2
08:12 49.1 °F /  9.5 °C 24.6 °F /  -4.1 °C 30.17in /  1021.6hPa Calm   1.0mph /  1.6km/h 38% 0.00in /  0mm 33.0 W/m2
08:18 50.7 °F /  10.4 °C 24.8 °F /  -4 °C 30.17in /  1021.6hPa Calm   1.0mph /  1.6km/h 36% 0.00in /  0mm 339.0 W/m2
08:24 53.6 °F /  12 °C 24.4 °F /  -4.2 °C 30.17in /  1021.6hPa Calm     32% 0.00in /  0mm 362.0 W/m2
08:30 56.7 °F /  13.7 °C 24.8 °F /  -4 °C 30.17in /  1021.6hPa Calm   1.0mph /  1.6km/h 29% 0.00in /  0mm 381.0 W/m2
08:37 58.6 °F /  14.8 °C 24.8 °F /  -4 °C 30.17in /  1021.6hPa Calm     27% 0.00in /  0mm 403.0 W/m2
08:43 60.4 °F /  15.8 °C 24.4 °F /  -4.2 °C 30.17in /  1021.6hPa Calm   3.0mph /  4.8km/h 25% 0.00in /  0mm 422.0 W/m2
08:49 61.7 °F /  16.5 °C 24.6 °F /  -4.1 °C 30.17in /  1021.6hPa Calm   3.0mph /  4.8km/h 24% 0.00in /  0mm 441.0 W/m2
08:55 62.6 °F /  17 °C 24.3 °F /  -4.3 °C 30.17in /  1021.6hPa Calm   1.0mph /  1.6km/h 23% 0.00in /  0mm 459.0 W/m2
09:01 63.3 °F /  17.4 °C 24.8 °F /  -4 °C 30.17in /  1021.6hPa Calm     23% 0.00in /  0mm 476.0 W/m2
09:07 63.5 °F /  17.5 °C 23.9 °F /  -4.5 °C 30.17in /  1021.6hPa Calm     22% 0.00in /  0mm 494.0 W/m2
09:13 64.0 °F /  17.8 °C 24.4 °F /  -4.2 °C 30.17in /  1021.6hPa Calm   2.0mph /  3.2km/h 22% 0.00in /  0mm 512.0 W/m2
09:19 65.1 °F /  18.4 °C 24.3 °F /  -4.3 °C 30.17in /  1021.6hPa Calm     21% 0.00in /  0mm 527.0 W/m2
09:26 65.5 °F /  18.6 °C 24.4 °F /  -4.2 °C 30.17in /  1021.6hPa Calm   1.0mph /  1.6km/h 21% 0.00in /  0mm 543.0 W/m2
09:32 66.2 °F /  19 °C 23.9 °F /  -4.5 °C 30.17in /  1021.6hPa Calm   3.0mph /  4.8km/h 20% 0.00in /  0mm 555.0 W/m2
09:38 66.7 °F /  19.3 °C 24.4 °F /  -4.2 °C 30.17in /  1021.6hPa Calm   5.0mph /  8km/h 20% 0.00in /  0mm 573.0 W/m2
09:44 66.7 °F /  19.3 °C 24.4 °F /  -4.2 °C 30.17in /  1021.6hPa Calm   6.0mph /  9.7km/h 20% 0.00in /  0mm 582.0 W/m2
09:50 67.3 °F /  19.6 °C 24.8 °F /  -4 °C 30.17in /  1021.6hPa Calm   7.0mph /  11.3km/h 20% 0.00in /  0mm 591.0 W/m2
09:56 67.5 °F /  19.7 °C 25.0 °F /  -3.9 °C 30.17in /  1021.6hPa NNW 0.9mph /  1.4km/h 5.0mph /  8km/h 20% 0.00in /  0mm 606.0 W/m2
10:02 67.6 °F /  19.8 °C 25.2 °F /  -3.8 °C 30.17in /  1021.6hPa North 2.9mph /  4.7km/h 6.0mph /  9.7km/h 20% 0.00in /  0mm 619.0 W/m2
10:08 68.0 °F /  20 °C 25.3 °F /  -3.7 °C 30.17in /  1021.6hPa Calm   4.0mph /  6.4km/h 20% 0.00in /  0mm 629.0 W/m2
10:15 68.4 °F /  20.2 °C 25.7 °F /  -3.5 °C 30.16in /  1021.2hPa Calm   2.0mph /  3.2km/h 20% 0.00in /  0mm 642.0 W/m2
10:21 69.1 °F /  20.6 °C 26.2 °F /  -3.2 °C 30.16in /  1021.2hPa Calm   1.0mph /  1.6km/h 20% 0.00in /  0mm 654.0 W/m2
10:27 69.3 °F /  20.7 °C 25.2 °F /  -3.8 °C 30.16in /  1021.2hPa WNW 2.0mph /  3.2km/h 4.0mph /  6.4km/h 19% 0.00in /  0mm 666.0 W/m2
10:33 69.6 °F /  20.9 °C 25.5 °F /  -3.6 °C 30.16in /  1021.2hPa Calm     19% 0.00in /  0mm 673.0 W/m2
10:39 70.0 °F /  21.1 °C 25.9 °F /  -3.4 °C 30.16in /  1021.2hPa Calm   6.0mph /  9.7km/h 19% 0.00in /  0mm 682.0 W/m2
10:45 70.2 °F /  21.2 °C 26.1 °F /  -3.3 °C 30.16in /  1021.2hPa North 2.0mph /  3.2km/h 2.0mph /  3.2km/h 19% 0.00in /  0mm 687.0 W/m2
10:51 70.5 °F /  21.4 °C 26.2 °F /  -3.2 °C 30.15in /  1020.9hPa West 2.0mph /  3.2km/h 6.0mph /  9.7km/h 19% 0.00in /  0mm 694.0 W/m2
10:58 70.5 °F /  21.4 °C 26.2 °F /  -3.2 °C 30.15in /  1020.9hPa NNW 4.0mph /  6.4km/h 6.0mph /  9.7km/h 19% 0.00in /  0mm 700.0 W/m2
11:04 70.7 °F /  21.5 °C 25.2 °F /  -3.8 °C 30.15in /  1020.9hPa Calm   7.0mph /  11.3km/h 18% 0.00in /  0mm 710.0 W/m2
11:10 70.9 °F /  21.6 °C 25.3 °F /  -3.7 °C 30.15in /  1020.9hPa NNW 2.0mph /  3.2km/h 8.0mph /  12.9km/h 18% 0.00in /  0mm 710.0 W/m2
11:16 71.1 °F /  21.7 °C 25.3 °F /  -3.7 °C 30.14in /  1020.5hPa Calm   7.0mph /  11.3km/h 18% 0.00in /  0mm 719.0 W/m2
11:22 71.2 °F /  21.8 °C 25.5 °F /  -3.6 °C 30.14in /  1020.5hPa North 6.0mph /  9.7km/h 7.0mph /  11.3km/h 18% 0.00in /  0mm 722.0 W/m2
11:28 71.4 °F /  21.9 °C 25.7 °F /  -3.5 °C 30.14in /  1020.5hPa NW 2.0mph /  3.2km/h 4.0mph /  6.4km/h 18% 0.00in /  0mm 719.0 W/m2
11:34 71.8 °F /  22.1 °C 26.1 °F /  -3.3 °C 30.14in /  1020.5hPa WNW 4.0mph /  6.4km/h 6.0mph /  9.7km/h 18% 0.00in /  0mm 728.0 W/m2
11:40 72.0 °F /  22.2 °C 24.8 °F /  -4 °C 30.13in /  1020.2hPa Calm   3.0mph /  4.8km/h 17% 0.00in /  0mm 731.0 W/m2
11:46 72.1 °F /  22.3 °C 25.0 °F /  -3.9 °C 30.13in /  1020.2hPa Calm   3.0mph /  4.8km/h 17% 0.00in /  0mm 728.0 W/m2
11:48 72.1 °F /  22.3 °C 25.0 °F /  -3.9 °C 30.13in /  1020.2hPa Calm   2.0mph /  3.2km/h 17% 0.00in /  0mm 735.0 W/m2
11:55 72.5 °F /  22.5 °C 25.2 °F /  -3.8 °C 30.13in /  1020.2hPa North 2.0mph /  3.2km/h 2.0mph /  3.2km/h 17% 0.00in /  0mm 731.0 W/m2
12:01 72.7 °F /  22.6 °C 25.3 °F /  -3.7 °C 30.13in /  1020.2hPa NW 2.0mph /  3.2km/h 5.0mph /  8km/h 17% 0.00in /  0mm 738.0 W/m2
12:07 72.9 °F /  22.7 °C 24.1 °F /  -4.4 °C 30.13in /  1020.2hPa NW 2.0mph /  3.2km/h 9.0mph /  14.5km/h 16% 0.00in /  0mm 731.0 W/m2
12:13 73.0 °F /  22.8 °C 24.3 °F /  -4.3 °C 30.12in /  1019.9hPa NNW 4.0mph /  6.4km/h 5.0mph /  8km/h 16% 0.00in /  0mm 731.0 W/m2
12:19 73.0 °F /  22.8 °C 22.6 °F /  -5.2 °C 30.11in /  1019.5hPa NNE 2.0mph /  3.2km/h 7.0mph /  11.3km/h 15% 0.00in /  0mm 726.0 W/m2
12:25 72.9 °F /  22.7 °C 24.1 °F /  -4.4 °C 30.11in /  1019.5hPa WSW 4.0mph /  6.4km/h 5.0mph /  8km/h 16% 0.00in /  0mm 717.0 W/m2
12:31 73.0 °F /  22.8 °C 24.3 °F /  -4.3 °C 30.11in /  1019.5hPa NNW 2.9mph /  4.7km/h 9.0mph /  14.5km/h 16% 0.00in /  0mm 715.0 W/m2
12:38 73.2 °F /  22.9 °C 24.3 °F /  -4.3 °C 30.11in /  1019.5hPa North 4.9mph /  7.9km/h 5.0mph /  8km/h 16% 0.00in /  0mm 715.0 W/m2
12:44 73.8 °F /  23.2 °C 24.8 °F /  -4 °C 30.11in /  1019.5hPa NNW 0.9mph /  1.4km/h 4.0mph /  6.4km/h 16% 0.00in /  0mm 705.0 W/m2
12:50 73.6 °F /  23.1 °C 23.0 °F /  -5 °C 30.11in /  1019.5hPa West 0.9mph /  1.4km/h 6.0mph /  9.7km/h 15% 0.00in /  0mm 700.0 W/m2
12:56 73.2 °F /  22.9 °C 24.3 °F /  -4.3 °C 30.10in /  1019.2hPa Calm   5.0mph /  8km/h 16% 0.00in /  0mm 694.0 W/m2
13:02 73.2 °F /  22.9 °C 24.3 °F /  -4.3 °C 30.10in /  1019.2hPa WSW 2.0mph /  3.2km/h 5.0mph /  8km/h 16% 0.00in /  0mm 686.0 W/m2
13:08 72.9 °F /  22.7 °C 24.1 °F /  -4.4 °C 30.09in /  1018.8hPa Calm   4.0mph /  6.4km/h 16% 0.00in /  0mm 675.0 W/m2
13:14 72.7 °F /  22.6 °C 23.9 °F /  -4.5 °C 30.09in /  1018.8hPa Calm   2.0mph /  3.2km/h 16% 0.00in /  0mm 670.0 W/m2
13:20 73.0 °F /  22.8 °C 24.3 °F /  -4.3 °C 30.09in /  1018.8hPa Calm   6.0mph /  9.7km/h 16% 0.00in /  0mm 661.0 W/m2
13:27 73.6 °F /  23.1 °C 24.6 °F /  -4.1 °C 30.09in /  1018.8hPa NE 2.9mph /  4.7km/h 7.0mph /  11.3km/h 16% 0.00in /  0mm 645.0 W/m2
13:33 73.6 °F /  23.1 °C 24.6 °F /  -4.1 °C 30.08in /  1018.5hPa NE 4.9mph /  7.9km/h 6.0mph /  9.7km/h 16% 0.00in /  0mm 635.0 W/m2
13:39 73.2 °F /  22.9 °C 24.3 °F /  -4.3 °C 30.08in /  1018.5hPa ENE 0.9mph /  1.4km/h 8.0mph /  12.9km/h 16% 0.00in /  0mm 624.0 W/m2
13:45 73.2 °F /  22.9 °C 24.3 °F /  -4.3 °C 30.07in /  1018.2hPa Calm   2.0mph /  3.2km/h 16% 0.00in /  0mm 615.0 W/m2
13:51 73.6 °F /  23.1 °C 24.6 °F /  -4.1 °C 30.07in /  1018.2hPa Calm   8.0mph /  12.9km/h 16% 0.00in /  0mm 601.0 W/m2
13:57 73.8 °F /  23.2 °C 24.8 °F /  -4 °C 30.07in /  1018.2hPa North 2.0mph /  3.2km/h 2.0mph /  3.2km/h 16% 0.00in /  0mm 591.0 W/m2
14:03 73.9 °F /  23.3 °C 25.0 °F /  -3.9 °C 30.06in /  1017.8hPa Calm   5.0mph /  8km/h 16% 0.00in /  0mm 580.0 W/m2
14:10 73.9 °F /  23.3 °C 23.4 °F /  -4.8 °C 30.07in /  1018.2hPa NNW 4.9mph /  7.9km/h 14.0mph /  22.5km/h 15% 0.00in /  0mm 563.0 W/m2
14:16 73.9 °F /  23.3 °C 23.4 °F /  -4.8 °C 30.07in /  1018.2hPa West 4.9mph /  7.9km/h 8.0mph /  12.9km/h 15% 0.00in /  0mm 550.0 W/m2
14:22 73.9 °F /  23.3 °C 23.4 °F /  -4.8 °C 30.06in /  1017.8hPa WNW 0.9mph /  1.4km/h 6.0mph /  9.7km/h 15% 0.00in /  0mm 534.0 W/m2
14:28 73.9 °F /  23.3 °C 23.4 °F /  -4.8 °C 30.06in /  1017.8hPa Calm   2.0mph /  3.2km/h 15% 0.00in /  0mm 520.0 W/m2
14:34 73.9 °F /  23.3 °C 23.4 °F /  -4.8 °C 30.06in /  1017.8hPa Calm   1.0mph /  1.6km/h 15% 0.00in /  0mm 504.0 W/m2
14:40 73.9 °F /  23.3 °C 25.0 °F /  -3.9 °C 30.06in /  1017.8hPa Calm   2.0mph /  3.2km/h 16% 0.00in /  0mm 490.0 W/m2
14:46 74.1 °F /  23.4 °C 23.5 °F /  -4.7 °C 30.06in /  1017.8hPa SW 2.0mph /  3.2km/h 5.0mph /  8km/h 15% 0.00in /  0mm 473.0 W/m2
14:52 73.8 °F /  23.2 °C 23.2 °F /  -4.9 °C 30.06in /  1017.8hPa West 0.9mph /  1.4km/h 5.0mph /  8km/h 15% 0.00in /  0mm 457.0 W/m2
14:58 73.4 °F /  23 °C 23.0 °F /  -5 °C 30.06in /  1017.8hPa SW 2.9mph /  4.7km/h 4.0mph /  6.4km/h 15% 0.00in /  0mm 439.0 W/m2
15:04 73.0 °F /  22.8 °C 22.6 °F /  -5.2 °C 30.06in /  1017.8hPa Calm   1.0mph /  1.6km/h 15% 0.00in /  0mm 420.0 W/m2
15:10 73.4 °F /  23 °C 23.0 °F /  -5 °C 30.06in /  1017.8hPa Calm   4.0mph /  6.4km/h 15% 0.00in /  0mm 406.0 W/m2
15:16 73.6 °F /  23.1 °C 23.0 °F /  -5 °C 30.06in /  1017.8hPa WNW 0.9mph /  1.4km/h 4.0mph /  6.4km/h 15% 0.00in /  0mm 383.0 W/m2
15:22 73.6 °F /  23.1 °C 23.0 °F /  -5 °C 30.07in /  1018.2hPa West 0.9mph /  1.4km/h 6.0mph /  9.7km/h 15% 0.00in /  0mm 364.0 W/m2
15:28 72.9 °F /  22.7 °C 22.5 °F /  -5.3 °C 30.06in /  1017.8hPa North 2.0mph /  3.2km/h 8.0mph /  12.9km/h 15% 0.00in /  0mm 345.0 W/m2
15:34 72.7 °F /  22.6 °C 22.3 °F /  -5.4 °C 30.06in /  1017.8hPa NNW 0.9mph /  1.4km/h 3.0mph /  4.8km/h 15% 0.00in /  0mm 325.0 W/m2
15:40 72.7 °F /  22.6 °C 22.3 °F /  -5.4 °C 30.06in /  1017.8hPa NNW 0.9mph /  1.4km/h 4.0mph /  6.4km/h 15% 0.00in /  0mm 202.0 W/m2
15:46 72.3 °F /  22.4 °C 22.1 °F /  -5.5 °C 30.06in /  1017.8hPa Calm     15% 0.00in /  0mm 47.0 W/m2
15:52 72.0 °F /  22.2 °C 23.4 °F /  -4.8 °C 30.06in /  1017.8hPa NNW 0.9mph /  1.4km/h 3.0mph /  4.8km/h 16% 0.00in /  0mm 44.0 W/m2
15:58 71.8 °F /  22.1 °C 23.2 °F /  -4.9 °C 30.06in /  1017.8hPa Calm   1.0mph /  1.6km/h 16% 0.00in /  0mm 42.0 W/m2
16:04 71.4 °F /  21.9 °C 22.8 °F /  -5.1 °C 30.06in /  1017.8hPa NW 2.0mph /  3.2km/h 6.0mph /  9.7km/h 16% 0.00in /  0mm 40.0 W/m2
16:10 71.2 °F /  21.8 °C 22.8 °F /  -5.1 °C 30.07in /  1018.2hPa Calm   3.0mph /  4.8km/h 16% 0.00in /  0mm 37.0 W/m2
16:16 70.9 °F /  21.6 °C 22.5 °F /  -5.3 °C 30.06in /  1017.8hPa North 2.0mph /  3.2km/h 3.0mph /  4.8km/h 16% 0.00in /  0mm 33.0 W/m2
16:22 70.5 °F /  21.4 °C 22.1 °F /  -5.5 °C 30.07in /  1018.2hPa North 4.9mph /  7.9km/h 6.0mph /  9.7km/h 16% 0.00in /  0mm 39.0 W/m2
16:28 70.2 °F /  21.2 °C 21.9 °F /  -5.6 °C 30.07in /  1018.2hPa NW 2.9mph /  4.7km/h 5.0mph /  8km/h 16% 0.00in /  0mm 39.0 W/m2
16:34 70.0 °F /  21.1 °C 23.2 °F /  -4.9 °C 30.07in /  1018.2hPa Calm   1.0mph /  1.6km/h 17% 0.00in /  0mm 33.0 W/m2
16:40 69.6 °F /  20.9 °C 21.4 °F /  -5.9 °C 30.06in /  1017.8hPa Calm     16% 0.00in /  0mm 25.0 W/m2
16:46 69.3 °F /  20.7 °C 22.6 °F /  -5.2 °C 30.07in /  1018.2hPa NNW 2.0mph /  3.2km/h 4.0mph /  6.4km/h 17% 0.00in /  0mm 25.0 W/m2
16:52 69.1 °F /  20.6 °C 23.7 °F /  -4.6 °C 30.07in /  1018.2hPa Calm   3.0mph /  4.8km/h 18% 0.00in /  0mm 21.0 W/m2
16:58 68.9 °F /  20.5 °C 22.3 °F /  -5.4 °C 30.07in /  1018.2hPa Calm   1.0mph /  1.6km/h 17% 0.00in /  0mm 19.0 W/m2
17:04 68.5 °F /  20.3 °C 23.4 °F /  -4.8 °C 30.07in /  1018.2hPa Calm   1.0mph /  1.6km/h 18% 0.00in /  0mm 16.0 W/m2
17:11 68.2 °F /  20.1 °C 25.5 °F /  -3.6 °C 30.07in /  1018.2hPa Calm     20% 0.00in /  0mm 12.0 W/m2
17:16 67.6 °F /  19.8 °C 23.9 °F /  -4.5 °C 30.07in /  1018.2hPa Calm   2.0mph /  3.2km/h 19% 0.00in /  0mm 11.0 W/m2
17:23 67.3 °F /  19.6 °C 22.3 °F /  -5.4 °C 30.07in /  1018.2hPa WNW 0.9mph /  1.4km/h 3.0mph /  4.8km/h 18% 0.00in /  0mm 7.0 W/m2
17:28 66.7 °F /  19.3 °C 23.2 °F /  -4.9 °C 30.07in /  1018.2hPa Calm     19% 0.00in /  0mm 0.0 W/m2
17:34 66.4 °F /  19.1 °C 22.8 °F /  -5.1 °C 30.08in /  1018.5hPa Calm     19% 0.00in /  0mm 0.0 W/m2
17:40 65.7 °F /  18.7 °C 23.5 °F /  -4.7 °C 30.08in /  1018.5hPa Calm     20% 0.00in /  0mm 0.0 W/m2
17:46 64.9 °F /  18.3 °C 24.1 °F /  -4.4 °C 30.08in /  1018.5hPa Calm     21% 0.00in /  0mm 0.0 W/m2
17:52 64.0 °F /  17.8 °C 24.4 °F /  -4.2 °C 30.08in /  1018.5hPa Calm     22% 0.00in /  0mm 0.0 W/m2
17:58 63.3 °F /  17.4 °C 23.9 °F /  -4.5 °C 30.08in /  1018.5hPa Calm     22% 0.00in /  0mm 0.0 W/m2
18:05 62.6 °F /  17 °C 23.2 °F /  -4.9 °C 30.09in /  1018.8hPa Calm     22% 0.00in /  0mm 0.0 W/m2
18:11 61.9 °F /  16.6 °C 23.7 °F /  -4.6 °C 30.09in /  1018.8hPa Calm     23% 0.00in /  0mm 0.0 W/m2
18:17 61.3 °F /  16.3 °C 24.3 °F /  -4.3 °C 30.09in /  1018.8hPa Calm     24% 0.00in /  0mm 0.0 W/m2
18:23 60.6 °F /  15.9 °C 23.5 °F /  -4.7 °C 30.09in /  1018.8hPa Calm     24% 0.00in /  0mm 0.0 W/m2
18:29 59.7 °F /  15.4 °C 22.8 °F /  -5.1 °C 30.10in /  1019.2hPa Calm     24% 0.00in /  0mm 0.0 W/m2
18:35 59.2 °F /  15.1 °C 23.4 °F /  -4.8 °C 30.10in /  1019.2hPa Calm     25% 0.00in /  0mm 0.0 W/m2
18:41 58.5 °F /  14.7 °C 22.8 °F /  -5.1 °C 30.10in /  1019.2hPa Calm     25% 0.00in /  0mm 0.0 W/m2
18:47 57.7 °F /  14.3 °C 22.1 °F /  -5.5 °C 30.11in /  1019.5hPa Calm     25% 0.00in /  0mm 0.0 W/m2
18:53 57.2 °F /  14 °C 22.6 °F /  -5.2 °C 30.11in /  1019.5hPa Calm     26% 0.00in /  0mm 0.0 W/m2
18:59 56.7 °F /  13.7 °C 23.0 °F /  -5 °C 30.11in /  1019.5hPa Calm     27% 0.00in /  0mm 0.0 W/m2
19:05 55.9 °F /  13.3 °C 22.5 °F /  -5.3 °C 30.11in /  1019.5hPa Calm     27% 0.00in /  0mm 0.0 W/m2
19:11 55.6 °F /  13.1 °C 22.1 °F /  -5.5 °C 30.11in /  1019.5hPa Calm     27% 0.00in /  0mm 0.0 W/m2
19:17 55.0 °F /  12.8 °C 21.7 °F /  -5.7 °C 30.11in /  1019.5hPa Calm     27% 0.00in /  0mm 0.0 W/m2
19:23 54.7 °F /  12.6 °C 22.3 °F /  -5.4 °C 30.11in /  1019.5hPa Calm   2.0mph /  3.2km/h 28% 0.00in /  0mm 0.0 W/m2
19:29 54.3 °F /  12.4 °C 21.9 °F /  -5.6 °C 30.11in /  1019.5hPa Calm     28% 0.00in /  0mm 0.0 W/m2
19:35 54.1 °F /  12.3 °C 21.7 °F /  -5.7 °C 30.11in /  1019.5hPa East 0.9mph /  1.4km/h 1.0mph /  1.6km/h 28% 0.00in /  0mm 0.0 W/m2
19:41 54.0 °F /  12.2 °C 21.6 °F /  -5.8 °C 30.11in /  1019.5hPa Calm     28% 0.00in /  0mm 0.0 W/m2
19:47 54.0 °F /  12.2 °C 21.6 °F /  -5.8 °C 30.11in /  1019.5hPa Calm   1.0mph /  1.6km/h 28% 0.00in /  0mm 0.0 W/m2
19:53 54.0 °F /  12.2 °C 20.7 °F /  -6.3 °C 30.11in /  1019.5hPa Calm     27% 0.00in /  0mm 0.0 W/m2
19:59 53.8 °F /  12.1 °C 21.4 °F /  -5.9 °C 30.12in /  1019.9hPa Calm     28% 0.00in /  0mm 0.0 W/m2
20:05 53.6 °F /  12 °C 21.2 °F /  -6 °C 30.12in /  1019.9hPa Calm     28% 0.00in /  0mm 0.0 W/m2
20:11 53.2 °F /  11.8 °C 21.7 °F /  -5.7 °C 30.12in /  1019.9hPa Calm   1.0mph /  1.6km/h 29% 0.00in /  0mm 0.0 W/m2
20:17 53.2 °F /  11.8 °C 21.0 °F /  -6.1 °C 30.12in /  1019.9hPa Calm     28% 0.00in /  0mm 0.0 W/m2
20:23 53.1 °F /  11.7 °C 21.6 °F /  -5.8 °C 30.12in /  1019.9hPa Calm   2.0mph /  3.2km/h 29% 0.00in /  0mm 0.0 W/m2
20:29 53.1 °F /  11.7 °C 21.6 °F /  -5.8 °C 30.13in /  1020.2hPa Calm     29% 0.00in /  0mm 0.0 W/m2
20:35 52.9 °F /  11.6 °C 21.6 °F /  -5.8 °C 30.13in /  1020.2hPa Calm     29% 0.00in /  0mm 0.0 W/m2
20:41 52.3 °F /  11.3 °C 21.0 °F /  -6.1 °C 30.13in /  1020.2hPa Calm     29% 0.00in /  0mm 0.0 W/m2
20:47 52.0 °F /  11.1 °C 20.7 °F /  -6.3 °C 30.13in /  1020.2hPa Calm     29% 0.00in /  0mm 0.0 W/m2
20:53 51.6 °F /  10.9 °C 21.2 °F /  -6 °C 30.13in /  1020.2hPa Calm   1.0mph /  1.6km/h 30% 0.00in /  0mm 0.0 W/m2
20:59 52.0 °F /  11.1 °C 20.7 °F /  -6.3 °C 30.13in /  1020.2hPa ESE 0.9mph /  1.4km/h 2.0mph /  3.2km/h 29% 0.00in /  0mm 0.0 W/m2
21:05 52.2 °F /  11.2 °C 20.8 °F /  -6.2 °C 30.14in /  1020.5hPa Calm   4.0mph /  6.4km/h 29% 0.00in /  0mm 0.0 W/m2
21:11 52.2 °F /  11.2 °C 20.8 °F /  -6.2 °C 30.14in /  1020.5hPa Calm     29% 0.00in /  0mm 0.0 W/m2
21:17 52.0 °F /  11.1 °C 21.6 °F /  -5.8 °C 30.14in /  1020.5hPa Calm   1.0mph /  1.6km/h 30% 0.00in /  0mm 0.0 W/m2
21:23 51.8 °F /  11 °C 21.4 °F /  -5.9 °C 30.14in /  1020.5hPa Calm     30% 0.00in /  0mm 0.0 W/m2
21:29 51.6 °F /  10.9 °C 21.2 °F /  -6 °C 30.14in /  1020.5hPa Calm     30% 0.00in /  0mm 0.0 W/m2
21:35 51.4 °F /  10.8 °C 21.0 °F /  -6.1 °C 30.14in /  1020.5hPa Calm     30% 0.00in /  0mm 0.0 W/m2
21:41 51.1 °F /  10.6 °C 21.6 °F /  -5.8 °C 30.14in /  1020.5hPa Calm     31% 0.00in /  0mm 0.0 W/m2
21:47 50.7 °F /  10.4 °C 21.2 °F /  -6 °C 30.14in /  1020.5hPa Calm     31% 0.00in /  0mm 0.0 W/m2
21:53 50.5 °F /  10.3 °C 21.7 °F /  -5.7 °C 30.14in /  1020.5hPa Calm     32% 0.00in /  0mm 0.0 W/m2
21:59 50.2 °F /  10.1 °C 20.7 °F /  -6.3 °C 30.14in /  1020.5hPa Calm     31% 0.00in /  0mm 0.0 W/m2
22:05 49.8 °F /  9.9 °C 21.2 °F /  -6 °C 30.14in /  1020.5hPa Calm     32% 0.00in /  0mm 0.0 W/m2
22:11 49.8 °F /  9.9 °C 21.9 °F /  -5.6 °C 30.14in /  1020.5hPa Calm     33% 0.00in /  0mm 0.0 W/m2
22:17 49.5 °F /  9.7 °C 21.6 °F /  -5.8 °C 30.14in /  1020.5hPa Calm     33% 0.00in /  0mm 0.0 W/m2
22:23 49.5 °F /  9.7 °C 20.8 °F /  -6.2 °C 30.14in /  1020.5hPa Calm   3.0mph /  4.8km/h 32% 0.00in /  0mm 0.0 W/m2
22:29 49.8 °F /  9.9 °C 21.2 °F /  -6 °C 30.14in /  1020.5hPa Calm     32% 0.00in /  0mm 0.0 W/m2
22:35 50.9 °F /  10.5 °C 20.5 °F /  -6.4 °C 30.14in /  1020.5hPa Calm   3.0mph /  4.8km/h 30% 0.00in /  0mm 0.0 W/m2
22:41 53.1 °F /  11.7 °C 19.9 °F /  -6.7 °C 30.14in /  1020.5hPa ESE 4.0mph /  6.4km/h 7.0mph /  11.3km/h 27% 0.00in /  0mm 0.0 W/m2
22:47 55.0 °F /  12.8 °C 20.8 °F /  -6.2 °C 30.14in /  1020.5hPa Calm   2.0mph /  3.2km/h 26% 0.00in /  0mm 0.0 W/m2
22:53 55.9 °F /  13.3 °C 20.7 °F /  -6.3 °C 30.14in /  1020.5hPa Calm     25% 0.00in /  0mm 0.0 W/m2
22:59 56.3 °F /  13.5 °C 19.9 °F /  -6.7 °C 30.14in /  1020.5hPa SSE 2.9mph /  4.7km/h 9.0mph /  14.5km/h 24% 0.00in /  0mm 0.0 W/m2
23:05 57.0 °F /  13.9 °C 20.5 °F /  -6.4 °C 30.14in /  1020.5hPa Calm   6.0mph /  9.7km/h 24% 0.00in /  0mm 0.0 W/m2
23:13 57.7 °F /  14.3 °C 20.1 °F /  -6.6 °C 30.14in /  1020.5hPa SE 2.0mph /  3.2km/h 4.0mph /  6.4km/h 23% 0.00in /  0mm 0.0 W/m2
23:20 57.9 °F /  14.4 °C 20.3 °F /  -6.5 °C 30.13in /  1020.2hPa Calm   5.0mph /  8km/h 23% 0.00in /  0mm 0.0 W/m2
23:26 58.3 °F /  14.6 °C 19.6 °F /  -6.9 °C 30.13in /  1020.2hPa SE 0.9mph /  1.4km/h 7.0mph /  11.3km/h 22% 0.00in /  0mm 0.0 W/m2
23:32 58.5 °F /  14.7 °C 19.8 °F /  -6.8 °C 30.13in /  1020.2hPa SE 8.1mph /  13km/h 8.1mph /  13km/h 22% 0.00in /  0mm 0.0 W/m2
23:38 58.5 °F /  14.7 °C 19.8 °F /  -6.8 °C 30.13in /  1020.2hPa SSE 4.0mph /  6.4km/h 7.0mph /  11.3km/h 22% 0.00in /  0mm 0.0 W/m2
23:44 58.5 °F /  14.7 °C 19.8 °F /  -6.8 °C 30.13in /  1020.2hPa SSE 2.9mph /  4.7km/h 13.0mph /  20.9km/h 22% 0.00in /  0mm 0.0 W/m2
23:50 58.5 °F /  14.7 °C 18.7 °F /  -7.4 °C 30.12in /  1019.9hPa SE 4.9mph /  7.9km/h 11.0mph /  17.7km/h 21% 0.00in /  0mm 0.0 W/m2
23:56 58.6 °F /  14.8 °C 18.9 °F /  -7.3 °C 30.12in /  1019.9hPa SSW 4.0mph /  6.4km/h 11.0mph /  17.7km/h 21% 0.00in /  0mm 0.0 W/m2
Olympia, Windhoek, Namibia
Compliments of Weather Underground - 3 mb